Hauptseite
METAR-TAF:

METAR-TAF

Flughäfen :

Flughafen Tozeur-Nefta

Tozeur, Tunesien

Breite: 33-55N, Länge: 008-06E, Höhe: 87 m

Beobachtung

Neuester Wetterbericht von vor 38 Minuten, um 04:00 UTC
Wind 10 kt aus Ost
Temperatur 20°C
Luftfeuchtigkeit 64%
Luftdruck 1014 hPa
Sichtweite: 6000 m

METAR: DTTZ 260400Z 08010KT 6000 NSC 20/13 Q1014 NOSIG

Zeit: 05:38 (04:38 UTC)

Prognose

Neuester Wetterbericht von vor 5 Stunden und 38 Minuten, um 23:00 UTC
Gültige Prognose vom 26 um 00 UTC bis 26 um 24 UTC
Wind 17 kt aus Ost
Sichtweite: 6000 m
Wahrscheinlichkeit 30% :
Zeitweise
vom 26 um 09 UTC bis 26 um 13 UTC
Sichtweite: 4000 m
Sand
Wahrscheinlichkeit 40% :
Zeitweise
vom 26 um 16 UTC bis 26 um 22 UTC
Wind 22 kt aus Ost, Böen bis zu 35 kt
Sichtweite: 3000 m
Sand

TAF: DTTZ 252300Z 2600/2624 10017KT 6000 NSC PROB30 TEMPO 2609/2613 4000 SA PROB40 TEMPO 2616/2622 10022G35KT 3000 SA

Wetterbeobachtungen und Prognosen von mehr als 4000 Flughäfen (METAR und TAF Bericht).

Die verfügbaren Stationen werden durch gelbe und rote Markierungen auf der Karte dargestellt.

Führen Sie die Maus auf sie, um den Namen der Station zu sehen.

Darauf klicken, um die Beobachtung von Wetterbeobachtungen und Prognosen zu sehen.

Um die Karte zu ändern : klicken Sie auf den grünen Tasten mit einem schwarzen Kreuz Zum Vergrößern, auf den grünen Button mit einem Gedankenstrich zu verkleinern, oder auf die grünen Pfeile für benachbarte Karten.


METAR-TAF: